Brackett, Wisconsin
Current Conditions -  °F | °C
As of 2:56 AM on Thursday 27 Nov 2014 (Local Time) from KEAU Reporting Station
Clear Clear  
Wind Chill: -22°   Ceiling: Unl
Heat Index: -13°   Visibility: 10mi
Dew Point: -18°   Wind: 12mph
Humidity: 70%   Direction: 330°NNW
Pressure: 30.38"   Gusts: NA
Location:  44.7441°N, 91.2945°W
Report Text: KEAU 270856Z AUTO 33010KT 10SM CLR M13/M18 A3038 RMK AO2 SLP305 60000 T11331178 53020
Loading
Personal Weather Stations






























Interactive Weather Map New forecast layout! Learn more

10-Day Weather Forecast

Advertisements
Track Severe Weather on mobile